Latest Weather Observations for Kingaroy

IDQ60901

Issued at 4:51 pm EST Sunday 21 December 2014 (issued every 10 minutes, with the page automatically refreshed every 10 minutes)

About weather observations | Map of Brisbane area stations | Latest observations for Brisbane area | Other Formats
Station Details ID: 040922 Name: KINGAROY AIRPORT Lat: -26.57 Lon: 151.84 Height: 433.67 m
Data from the previous 72 hours. | See also: Recent months at Kingaroy
Date/Time
EST
Tmp

°C
App
Tmp
°C
Dew
Point
°C
Rel
Hum
%
Delta-T

°C
Wind Press
QNH
hPa
Press
MSL
hPa
Rain
since
9 am
mm
Dir
 
Spd
km/h
Gust
km/h
Spd
kts
Gust
kts
21/04:30pm 27.5 28.0 16.5 51 6.9 ENE 9 17 5 9 1015.4 1013.1 0.0
21/04:00pm 26.7 27.2 16.6 54 6.4 ESE 9 15 5 8 1015.7 1013.4 0.0
21/03:30pm 26.6 26.7 15.6 50 6.8 NNE 9 19 5 10 1015.8 1013.5 0.0
21/03:00pm 27.4 27.4 17.3 54 6.4 E 13 19 7 10 1016.5 1014.1 0.0
21/02:30pm 26.6 26.9 15.9 51 6.7 NNE 9 15 5 8 1016.8 1014.4 0.0
21/02:00pm 27.5 28.0 16.5 51 6.9 ENE 9 15 5 8 1017.1 1014.8 0.0
21/01:30pm 25.8 25.6 15.8 54 6.2 ENE 11 19 6 10 1017.4 1015.1 0.0
21/01:00pm 26.7 26.9 15.7 51 6.8 ENE 9 15 5 8 1017.7 1015.4 0.0
21/12:30pm 25.7 25.7 15.1 52 6.5 NE 9 17 5 9 1018.0 1015.7 0.0
21/12:00pm 26.0 25.9 16.0 54 6.2 NE 11 20 6 11 1018.4 1016.1 0.0
21/11:30am 25.2 25.1 14.9 52 6.3 NNE 9 17 5 9 1019.0 1016.6 0.0
21/11:00am 24.9 24.8 16.1 58 5.5 NNE 11 15 6 8 1019.2 1016.9 0.0
21/10:30am 24.5 24.7 15.7 58 5.4 ENE 9 19 5 10 1019.3 1017.0 0.0
21/10:00am 25.1 25.3 15.7 56 5.8 ENE 9 17 5 9 1019.6 1017.3 0.0
21/09:30am 23.4 23.2 16.7 66 4.2 E 13 17 7 9 1019.6 1017.3 0.0
21/09:00am 23.3 23.0 16.4 65 4.3 E 13 17 7 9 1019.7 1017.4 4.4
21/08:30am 23.1 22.8 17.3 70 3.6 E 15 20 8 11 1019.6 1017.3 4.2
21/08:00am 22.2 22.4 16.7 71 3.4 ENE 11 19 6 10 1019.6 1017.3 4.2
21/07:30am 21.5 21.5 16.2 72 3.3 ENE 11 17 6 9 1019.4 1017.1 4.2
21/07:00am 20.7 20.0 16.5 77 2.6 E 15 22 8 12 1019.1 1016.7 4.2
21/06:30am 20.1 20.1 17.1 83 1.9 E 13 20 7 11 1018.6 1016.3 4.2
21/06:00am 19.8 20.1 17.0 84 1.7 E 11 17 6 9 1018.2 1015.9 4.2
21/05:30am 19.7 19.2 16.9 84 1.7 E 15 20 8 11 1017.9 1015.6 4.2
21/05:00am 19.7 20.0 17.1 85 1.6 E 11 15 6 8 1017.6 1015.3 4.2
21/04:30am 19.8 20.2 17.2 85 1.6 E 11 17 6 9 1017.2 1014.9 4.2
21/04:00am 19.9 20.5 17.7 87 1.4 E 11 15 6 8 1016.8 1014.4 4.2
21/03:30am 20.0 20.3 17.8 87 1.4 E 13 17 7 9 1016.5 1014.1 4.2
21/03:00am 20.1 20.4 17.9 87 1.4 E 13 17 7 9 1016.5 1014.1 4.2
21/02:30am 20.2 20.6 18.1 88 1.3 E 13 17 7 9 1016.6 1014.2 4.2
21/02:00am 20.3 21.1 18.2 88 1.3 E 11 15 6 8 1016.8 1014.4 4.2
21/01:30am 20.5 20.9 18.1 86 1.5 E 13 19 7 10 1017.0 1014.6 4.2
21/01:00am 20.5 22.2 18.4 88 1.3 SE 7 11 4 6 1017.0 1014.6 4.2
21/12:30am 20.5 22.1 18.3 87 1.4 E 7 13 4 7 1017.2 1014.9 4.2
21/12:00am 20.4 22.2 18.7 90 1.1 E 7 11 4 6 1017.3 1015.0 4.2
 
Date/Time
EST
Tmp

°C
App
Tmp
°C
Dew
Point
°C
Rel
Hum
%
Delta-T

°C
Wind Press
QNH
hPa
Press
MSL
hPa
Rain
since
9 am
mm
Dir
 
Spd
km/h
Gust
km/h
Spd
kts
Gust
kts
20/11:30pm 20.4 22.1 18.5 89 1.2 E 7 11 4 6 1017.5 1015.2 4.2
20/11:00pm 20.6 22.3 18.5 88 1.3 E 7 11 4 6 1017.8 1015.5 4.2
20/10:30pm 20.7 22.1 18.6 88 1.3 E 9 13 5 7 1017.9 1015.6 4.2
20/10:00pm 20.7 22.4 18.5 87 1.4 E 7 13 4 7 1017.8 1015.5 4.2
20/09:30pm 20.7 22.4 18.5 87 1.4 E 7 11 4 6 1017.8 1015.5 4.2
20/09:00pm 20.8 22.2 18.7 88 1.3 E 9 17 5 9 1017.5 1015.2 4.2
20/08:30pm 20.6 22.1 18.9 90 1.1 ESE 9 13 5 7 1017.2 1014.9 4.2
20/08:00pm 20.9 22.0 18.8 88 1.3 E 11 15 6 8 1016.8 1014.4 4.2
20/07:30pm 21.0 22.5 18.9 88 1.3 E 9 15 5 8 1016.4 1014.0 4.2
20/07:00pm 21.3 22.3 18.7 85 1.7 ESE 11 17 6 9 1015.9 1013.6 4.0
20/06:30pm 23.4 23.8 18.9 76 2.9 ESE 15 24 8 13 1015.0 1012.7 0.0
20/06:00pm 24.0 22.9 18.6 72 3.5 E 22 32 12 17 1014.3 1011.9 0.0
20/05:30pm 24.4 22.5 18.6 70 3.7 ESE 26 41 14 22 1013.8 1011.5 0.0
20/05:00pm 24.9 22.4 18.8 69 4.0 ESE 30 41 16 22 1013.3 1011.0 0.0
20/04:30pm 26.6 26.1 17.9 59 5.6 E 17 33 9 18 1013.0 1010.7 0.0
20/04:00pm 29.8 29.6 16.6 45 8.4 ENE 13 20 7 11 1012.8 1010.4 0.0
20/03:30pm 28.6 29.0 16.2 47 7.8 ENE 9 15 5 8 1012.9 1010.6 0.0
20/03:00pm 28.8 28.7 16.0 45 8.1 NE 11 15 6 8 1013.2 1010.9 0.0
20/02:30pm 29.3 29.3 17.2 48 7.8 NE 13 20 7 11 1013.5 1011.2 0.0
20/02:00pm 27.7 27.8 16.6 50 7.0 NNE 11 17 6 9 1014.2 1011.8 0.0
20/01:30pm 28.8 29.6 17.3 49 7.4 NE 9 17 5 9 1014.6 1012.2 0.0
20/01:00pm 28.6 28.6 16.2 47 7.8 NNE 11 20 6 11 1014.9 1012.5 0.0
20/12:30pm 28.4 29.5 17.0 50 7.3 NE 7 17 4 9 1015.3 1013.0 0.0
20/12:00pm 27.6 28.1 16.6 51 6.9 NNE 9 13 5 7 1015.7 1013.4 0.0
20/11:30am 28.0 28.6 16.9 51 7.1 NNE 9 20 5 11 1016.2 1013.9 0.0
20/11:00am 27.2 27.7 16.5 52 6.7 NE 9 15 5 8 1016.7 1014.3 0.0
20/10:30am 26.1 26.6 16.6 55 6.0 N 9 17 5 9 1016.9 1014.5 0.0
20/10:00am 25.9 26.6 17.0 58 5.6 E 9 19 5 10 1017.1 1014.8 0.0
20/09:30am 25.3 26.2 18.5 66 4.4 E 11 20 6 11 1017.1 1014.8 0.0
20/09:00am 24.2 23.1 17.4 65 4.3 E 19 26 10 14 1017.1 1014.8 0.0
20/08:30am 23.3 22.3 16.6 66 4.2 E 17 26 9 14 1017.2 1014.9 0.0
20/08:00am 23.3 22.9 18.0 72 3.4 E 17 28 9 15 1017.1 1014.8 0.0
20/07:30am 22.2 21.6 18.4 79 2.4 ESE 19 26 10 14 1016.9 1014.5 0.0
20/07:00am 20.8 19.8 17.6 82 2.0 ESE 19 26 10 14 1016.7 1014.3 0.0
20/06:30am 20.6 20.6 18.2 86 1.5 ESE 15 22 8 12 1016.2 1013.9 0.0
20/06:00am 20.1 20.8 17.9 87 1.4 ESE 11 15 6 8 1015.9 1013.6 0.0
20/05:30am 19.6 20.3 17.9 90 1.1 ESE 11 17 6 9 1015.5 1013.2 0.0
20/05:00am 19.3 19.9 17.8 91 0.9 ESE 11 19 6 10 1015.1 1012.8 0.0
20/04:30am 19.3 20.2 17.6 90 1.1 ESE 9 13 5 7 1014.7 1012.3 0.0
20/04:00am 19.8 20.2 17.2 85 1.6 ESE 11 19 6 10 1014.4 1012.0 0.0
20/03:30am 19.1 19.9 16.3 84 1.7 SE 7 11 4 6 1014.2 1011.8 0.0
20/03:00am 18.7 20.5 15.4 81 2.0 CALM 0 6 0 3 1014.1 1011.7 0.0
20/02:30am 18.8 19.4 15.3 80 2.1 SSE 6 9 3 5 1014.1 1011.7 0.0
20/02:00am 19.4 19.9 14.9 75 2.7 ESE 6 11 3 6 1014.0 1011.6 0.0
20/01:30am 19.9 19.7 14.7 72 3.1 E 9 15 5 8 1014.1 1011.7 0.0
20/01:00am 20.6 20.0 15.6 73 3.0 E 13 17 7 9 1014.2 1011.8 0.0
20/12:30am 20.0 21.2 16.8 82 2.0 SSE 6 7 3 4 1014.4 1012.0 0.0
20/12:00am 20.3 19.4 16.9 81 2.1 SSE 17 24 9 13 1014.3 1011.9 0.0
 
Date/Time
EST
Tmp

°C
App
Tmp
°C
Dew
Point
°C
Rel
Hum
%
Delta-T

°C
Wind Press
QNH
hPa
Press
MSL
hPa
Rain
since
9 am
mm
Dir
 
Spd
km/h
Gust
km/h
Spd
kts
Gust
kts
19/11:30pm 18.8 19.2 16.2 85 1.6 ESE 9 11 5 6 1014.4 1012.0 0.0
19/11:00pm 18.7 20.1 16.5 87 1.3 ESE 4 9 2 5 1014.5 1012.1 0.0
19/10:30pm 18.6 20.7 16.2 86 1.5 CALM 0 0 0 0 1014.7 1012.3 0.0
19/10:00pm 19.1 20.8 16.3 84 1.7 SW 2 6 1 3 1014.2 1011.8 0.0
19/09:30pm 19.7 20.4 16.2 80 2.1 E 7 7 4 4 1014.0 1011.6 0.0
19/09:00pm 20.5 20.8 15.9 75 2.8 ESE 9 11 5 6 1013.8 1011.5 0.0
19/08:30pm 20.9 22.9 16.1 74 2.9 CALM 0 0 0 0 1013.6 1011.3 0.0
19/08:00pm 21.6 22.4 15.9 70 3.5 E 6 9 3 5 1013.5 1011.2 0.0
19/07:30pm 22.6 24.8 17.5 73 3.2 ESE 2 7 1 4 1013.3 1011.0 0.0
19/07:00pm 25.4 26.5 13.6 48 7.1 CALM 0 0 0 0 1013.0 1010.7 0.0
19/06:30pm 26.9 26.8 13.3 43 8.1 SSW 6 7 3 4 1012.8 1010.4 0.0
19/06:00pm 29.1 28.7 12.9 37 9.7 SSW 7 13 4 7 1012.5 1010.1 0.0
19/05:30pm 29.5 26.3 10.1 30 11.2 SSW 17 24 9 13 1012.3 1009.9 0.0
19/05:00pm 29.3 26.6 10.4 31 10.9 SW 15 20 8 11 1012.0 1009.6 0.0
19/04:30pm 30.2 27.1 11.7 32 11.0 SSW 19 30 10 16 1011.9 1009.5 0.0
19/04:00pm 30.2 27.1 10.2 29 11.6 SSW 17 26 9 14 1011.8 1009.4 0.0
19/03:30pm 30.7 27.8 11.1 30 11.5 SSW 17 24 9 13 1011.7 1009.3 0.0
19/03:00pm 30.4 27.0 10.4 29 11.6 S 19 26 10 14 1011.9 1009.5 0.0
19/02:30pm 30.2 26.7 10.2 29 11.6 SSW 19 26 10 14 1012.2 1009.8 0.0
19/02:00pm 30.3 26.8 8.7 26 12.2 SW 17 28 9 15 1012.4 1010.0 0.0
19/01:30pm 30.0 27.2 11.5 32 10.9 SSW 17 26 9 14 1012.7 1010.3 0.0
19/01:00pm 29.7 26.2 10.8 31 11.0 SSE 20 28 11 15 1012.9 1010.6 0.0
19/12:30pm 28.3 28.0 14.5 43 8.5 SSW 9 20 5 11 1013.1 1010.8 0.0
19/12:00pm 28.6 28.1 16.8 48 7.5 WSW 15 22 8 12 1013.4 1011.1 0.0
19/11:30am 27.0 26.4 15.7 50 7.0 SW 13 22 7 12 1013.7 1011.4 0.0
19/11:00am 27.2 26.8 16.2 51 6.9 SSW 13 24 7 13 1013.8 1011.5 0.0
19/10:30am 25.9 27.1 18.3 63 4.9 WNW 9 15 5 8 1014.2 1011.8 0.0
19/10:00am 24.3 24.8 17.5 66 4.3 W 11 19 6 10 1014.3 1011.9 0.0
19/09:30am 24.3 25.9 18.2 68 3.9 WSW 7 15 4 8 1014.3 1011.9 0.0
19/09:00am 22.4 23.8 17.8 75 2.9 W 7 11 4 6 1014.5 1012.1 19.0
19/08:30am 21.7 23.2 18.9 84 1.8 NW 9 15 5 8 1014.7 1012.3 19.0
19/08:00am 20.3 22.0 18.4 89 1.2 W 7 9 4 5 1014.8 1012.4 19.0
19/07:30am 19.8 21.3 18.1 90 1.1 W 7 9 4 5 1014.5 1012.1 19.0
19/07:00am 19.4 22.2 17.9 91 0.9 CALM 0 6 0 3 1014.4 1012.0 19.0
19/06:30am 19.1 21.9 17.9 93 0.8 CALM 0 0 0 0 1014.2 1011.8 19.0
19/06:00am 19.0 21.6 18.3 96 0.4 WSW 2 6 1 3 1014.2 1011.8 19.0
19/05:30am 18.9 21.8 18.2 96 0.4 CALM 0 0 0 0 1013.8 1011.5 19.0
19/05:00am 18.7 20.4 18.0 96 0.4 N 6 6 3 3 1013.5 1011.2 18.8
19/04:30am 18.8 20.3 18.1 96 0.4 NNW 7 9 4 5 1013.7 1011.4 18.4
19/04:00am 18.9 20.6 18.1 95 0.5 WNW 6 7 3 4 1013.7 1011.4 17.8
19/03:30am 19.1 20.3 18.3 95 0.5 W 9 11 5 6 1014.0 1011.6 17.0
19/03:00am 19.1 22.0 18.3 95 0.5 CALM 0 0 0 0 1013.8 1011.5 16.0
19/02:30am 19.1 22.0 18.3 95 0.5 CALM 0 0 0 0 1014.0 1011.6 15.0
19/02:00am 19.1 20.7 18.3 95 0.5 NW 7 11 4 6 1014.4 1012.0 13.8
19/01:30am 19.3 22.2 18.1 93 0.8 CALM 0 4 0 2 1014.5 1012.1 11.0
19/01:00am 19.3 22.1 18.0 92 0.8 CALM 0 0 0 0 1014.3 1011.9 10.0
19/12:30am 19.5 21.8 17.8 90 1.1 SW 2 6 1 3 1014.5 1012.1 9.6
19/12:00am 19.7 21.1 17.7 88 1.3 WSW 7 11 4 6 1015.1 1012.8 9.4
 
Date/Time
EST
Tmp

°C
App
Tmp
°C
Dew
Point
°C
Rel
Hum
%
Delta-T

°C
Wind Press
QNH
hPa
Press
MSL
hPa
Rain
since
9 am
mm
Dir
 
Spd
km/h
Gust
km/h
Spd
kts
Gust
kts
18/11:30pm 20.6 21.0 19.1 91 1.0 WNW 15 20 8 11 1015.5 1013.2 8.2
18/11:00pm 20.7 23.2 19.0 90 1.1 N 4 7 2 4 1015.2 1012.9 7.6
18/10:30pm 21.0 23.9 19.1 89 1.2 NNE 2 7 1 4 1014.7 1012.3 7.4
18/10:00pm 21.2 23.2 18.8 86 1.5 ENE 6 9 3 5 1014.2 1011.8 7.0
18/09:30pm 21.2 23.4 19.3 89 1.2 ESE 6 9 3 5 1013.5 1011.2 7.0
18/09:00pm 21.4 23.1 19.3 88 1.4 S 9 11 5 6 1013.2 1010.9 7.0
18/08:30pm 21.3 22.3 19.4 89 1.2 SSW 13 17 7 9 1013.1 1010.8 7.0
18/08:00pm 21.1 23.5 19.6 91 1.0 SSW 6 11 3 6 1013.1 1010.8 7.0
18/07:30pm 21.2 22.3 19.7 91 1.0 SSW 13 17 7 9 1013.0 1010.7 7.0
18/07:00pm 21.0 21.3 19.6 92 0.9 SSW 17 20 9 11 1012.8 1010.4 6.8
18/06:30pm 21.0 20.3 19.6 92 0.9 SW 22 32 12 17 1013.4 1011.1 6.4
18/06:00pm 21.4 21.2 19.7 90 1.1 WSW 20 32 11 17 1014.0 1011.6 2.6
18/05:30pm 22.5 19.9 19.5 83 1.9 SW 32 50 17 27 1011.9 1009.5 0.6
18/05:14pm 24.7 22.5 18.6 69 3.9 SW 28 54 15 29 1011.5 1009.1 0.0
18/05:03pm 27.3 26.5 17.2 54 6.4 W 17 43 9 23 1010.2 1007.8 0.0
18/05:00pm 29.6 29.2 16.1 44 8.5 WNW 13 17 7 9 1009.8 1007.4 0.0

Latest Capital City Observations: Canberra | Sydney | Melbourne | Brisbane | Adelaide | Perth | Hobart | Darwin

Other Formats:

Comma delimited format used in spreadsheet applications
http://www.bom.gov.au/fwo/IDQ60901/IDQ60901.94549.axf

JavaScript Object Notation format (JSON) in row-major order
http://www.bom.gov.au/fwo/IDQ60901/IDQ60901.94549.json